createdAt,value
2018-09-24T00:00:56.179Z,6.40
2018-09-24T00:03:25.443Z,5.50
2018-09-24T00:05:54.688Z,5.43
2018-09-24T00:08:23.952Z,5.27
2018-09-24T00:10:53.252Z,7.13
2018-09-24T00:13:22.471Z,6.90
2018-09-24T00:15:51.687Z,5.97
2018-09-24T00:18:20.868Z,7.47
2018-09-24T00:20:50.102Z,6.93
2018-09-24T00:23:19.328Z,6.53
2018-09-24T00:25:48.560Z,6.30
2018-09-24T00:28:17.774Z,6.73
2018-09-24T00:30:47.000Z,5.13
2018-09-24T00:33:16.207Z,5.50
2018-09-24T00:35:45.487Z,5.10
2018-09-24T00:38:14.783Z,5.87
2018-09-24T00:40:44.023Z,5.07
2018-09-24T00:43:13.299Z,6.20
2018-09-24T00:45:42.528Z,6.23
2018-09-24T00:48:11.803Z,5.00
2018-09-24T00:50:41.085Z,5.17
2018-09-24T00:53:10.318Z,4.87
2018-09-24T00:55:39.514Z,3.90
2018-09-24T00:58:08.754Z,5.30
2018-09-24T01:00:38.037Z,4.47
2018-09-24T01:03:07.324Z,4.20
2018-09-24T01:05:36.587Z,4.03
2018-09-24T01:08:06.099Z,3.40
2018-09-24T01:10:35.348Z,3.60
2018-09-24T01:13:04.573Z,3.57
2018-09-24T01:15:33.799Z,3.40
2018-09-24T01:18:02.996Z,4.17
2018-09-24T01:20:32.229Z,2.60
2018-09-24T01:23:01.513Z,3.67
2018-09-24T01:25:30.725Z,3.10
2018-09-24T01:27:59.972Z,1.80
2018-09-24T01:30:29.187Z,2.30
2018-09-24T01:32:58.395Z,2.03
2018-09-24T01:35:27.559Z,1.60
2018-09-24T01:37:56.803Z,2.33
2018-09-24T01:40:26.034Z,1.33
2018-09-24T01:42:55.285Z,1.20
2018-09-24T01:45:24.483Z,2.10
2018-09-24T01:47:53.693Z,1.57
2018-09-24T01:50:22.899Z,1.60
2018-09-24T01:52:52.159Z,1.30
2018-09-24T01:55:21.400Z,1.77
2018-09-24T01:57:50.681Z,1.53
2018-09-24T02:00:19.912Z,1.70
2018-09-24T02:02:49.132Z,1.50
2018-09-24T02:05:18.369Z,1.83
2018-09-24T02:07:47.605Z,1.73
2018-09-24T02:10:24.591Z,1.57
2018-09-24T02:12:57.534Z,1.60
2018-09-24T02:15:32.389Z,1.90
2018-09-24T02:18:01.825Z,1.80
2018-09-24T02:20:31.056Z,2.87
2018-09-24T02:23:00.269Z,2.23
2018-09-24T02:25:29.545Z,2.23
2018-09-24T02:27:58.775Z,3.53
2018-09-24T02:30:28.013Z,3.00
2018-09-24T02:32:57.280Z,4.13
2018-09-24T02:35:26.510Z,3.83
2018-09-24T02:37:55.753Z,4.73
2018-09-24T02:40:25.523Z,4.10
2018-09-24T02:42:54.827Z,5.40
2018-09-24T02:45:24.075Z,4.80
2018-09-24T02:47:53.314Z,5.30
2018-09-24T02:50:28.696Z,5.47
2018-09-24T02:52:57.958Z,5.10
2018-09-24T02:55:27.232Z,5.03
2018-09-24T02:57:56.435Z,4.90
2018-09-24T03:00:25.652Z,4.80
2018-09-24T03:02:54.956Z,4.03
2018-09-24T03:05:24.136Z,3.63
2018-09-24T03:07:53.307Z,3.77
2018-09-24T03:10:22.541Z,3.50
2018-09-24T03:12:52.893Z,2.63
2018-09-24T03:15:22.353Z,2.20
2018-09-24T03:17:51.538Z,3.50
2018-09-24T03:20:20.729Z,2.20
2018-09-24T03:22:49.933Z,3.07
2018-09-24T03:25:19.936Z,3.23
2018-09-24T03:27:49.147Z,2.83
2018-09-24T03:30:18.384Z,3.87
2018-09-24T03:32:47.649Z,2.93
2018-09-24T03:35:16.842Z,2.60
2018-09-24T03:37:46.104Z,3.07
2018-09-24T03:40:15.323Z,4.00
2018-09-24T03:42:44.540Z,3.83
2018-09-24T03:45:13.818Z,3.23
2018-09-24T03:47:43.087Z,3.63
2018-09-24T03:50:12.466Z,3.37
2018-09-24T03:52:41.744Z,3.90
2018-09-24T03:55:10.980Z,2.80
2018-09-24T03:57:40.227Z,3.43
2018-09-24T04:00:09.444Z,3.10
2018-09-24T04:02:38.995Z,3.57
2018-09-24T04:05:13.761Z,3.33
2018-09-24T04:07:48.218Z,3.37
2018-09-24T04:10:22.758Z,3.50
2018-09-24T04:12:57.343Z,4.80
2018-09-24T04:15:31.761Z,3.60
2018-09-24T04:18:06.218Z,4.57
2018-09-24T04:20:40.877Z,3.70
2018-09-24T04:23:15.559Z,4.03
2018-09-24T04:25:50.791Z,4.77
2018-09-24T04:28:25.558Z,4.77
2018-09-24T04:31:00.149Z,4.93
2018-09-24T04:33:34.734Z,5.20
2018-09-24T04:36:09.285Z,5.60
2018-09-24T04:38:43.789Z,6.00
2018-09-24T04:41:18.395Z,6.50
2018-09-24T04:43:52.990Z,5.60
2018-09-24T04:46:27.628Z,4.63
2018-09-24T04:49:02.310Z,3.77
2018-09-24T04:51:36.719Z,3.07
2018-09-24T04:54:11.218Z,2.07
2018-09-24T04:56:45.669Z,1.90
2018-09-24T04:59:20.118Z,1.40
2018-09-24T05:01:54.743Z,1.77
2018-09-24T05:04:29.257Z,1.60
2018-09-24T05:07:03.861Z,2.33
2018-09-24T05:09:38.391Z,1.70
2018-09-24T05:12:13.061Z,2.50
2018-09-24T05:14:47.633Z,1.80
2018-09-24T05:17:22.138Z,2.13
2018-09-24T05:19:56.832Z,2.20
2018-09-24T05:22:31.410Z,3.20
2018-09-24T05:25:05.974Z,3.43
2018-09-24T05:27:40.539Z,3.03
2018-09-24T05:30:15.115Z,3.27
2018-09-24T05:32:49.499Z,1.70
2018-09-24T05:35:23.977Z,1.70
2018-09-24T05:37:58.490Z,2.03
2018-09-24T05:40:32.915Z,2.33
2018-09-24T05:43:07.401Z,1.90
2018-09-24T05:45:41.948Z,2.50
2018-09-24T05:48:16.633Z,1.90
2018-09-24T05:50:51.267Z,1.70
2018-09-24T05:53:25.940Z,1.60
2018-09-24T05:56:00.389Z,1.67
2018-09-24T05:58:34.896Z,2.50
2018-09-24T06:01:09.504Z,1.53
2018-09-24T06:03:44.020Z,1.40
2018-09-24T06:06:18.686Z,1.60
2018-09-24T06:08:53.227Z,1.37
2018-09-24T06:11:27.632Z,1.30
2018-09-24T06:14:02.228Z,2.13
2018-09-24T06:16:36.902Z,2.00
2018-09-24T06:19:11.877Z,2.07
2018-09-24T06:21:46.390Z,1.87
2018-09-24T06:24:20.982Z,1.60
2018-09-24T06:26:55.610Z,1.70
2018-09-24T06:29:30.150Z,3.00
2018-09-24T06:32:04.704Z,1.70
2018-09-24T06:34:39.401Z,1.77
2018-09-24T06:37:13.920Z,1.90
2018-09-24T06:39:48.517Z,1.77
2018-09-24T06:42:23.202Z,1.63
2018-09-24T06:44:57.771Z,2.00
2018-09-24T06:47:32.402Z,1.70
2018-09-24T06:50:07.093Z,1.70
2018-09-24T06:52:41.741Z,2.27
2018-09-24T06:55:16.342Z,1.50
2018-09-24T06:57:50.988Z,1.50
2018-09-24T07:00:25.503Z,1.90
2018-09-24T07:02:59.945Z,1.50
2018-09-24T07:05:34.689Z,2.20
2018-09-24T07:08:09.117Z,1.40
2018-09-24T07:10:43.647Z,2.40
2018-09-24T07:13:18.165Z,2.17
2018-09-24T07:15:52.780Z,1.40
2018-09-24T07:18:27.395Z,2.43
2018-09-24T07:21:02.004Z,1.63
2018-09-24T07:23:36.519Z,1.50
2018-09-24T07:26:11.005Z,1.73
2018-09-24T07:28:45.496Z,1.60
2018-09-24T07:31:19.947Z,2.40
2018-09-24T07:41:02.905Z,1.97
2018-09-24T07:43:37.462Z,2.23
2018-09-24T07:46:12.023Z,1.70
2018-09-24T07:48:46.499Z,2.20
2018-09-24T07:51:20.966Z,1.30
2018-09-24T07:53:55.471Z,1.30
2018-09-24T07:56:29.952Z,1.80
2018-09-24T07:59:04.589Z,1.57
2018-09-24T08:01:39.236Z,2.10
2018-09-24T08:04:13.636Z,1.87
2018-09-24T08:06:48.274Z,1.43
2018-09-24T08:09:22.903Z,1.47
2018-09-24T08:11:57.535Z,1.20
2018-09-24T08:14:32.035Z,1.20
2018-09-24T08:17:06.494Z,1.50
2018-09-24T08:19:41.166Z,1.90
2018-09-24T08:22:15.800Z,1.07
2018-09-24T08:24:50.206Z,1.70
2018-09-24T08:27:24.662Z,1.63
2018-09-24T08:29:59.045Z,1.90
2018-09-24T08:32:33.668Z,1.40
2018-09-24T08:35:08.237Z,2.27
2018-09-24T08:37:42.956Z,2.50
2018-09-24T08:40:17.414Z,1.50
2018-09-24T08:42:52.015Z,1.70
2018-09-24T08:45:26.508Z,1.27
2018-09-24T08:48:01.179Z,2.10
2018-09-24T08:50:35.671Z,2.00
2018-09-24T08:53:10.353Z,1.93
2018-09-24T08:55:44.888Z,2.03
2018-09-24T08:58:19.521Z,1.43
2018-09-24T09:00:54.192Z,1.50
2018-09-24T09:03:28.849Z,1.50
2018-09-24T09:06:03.451Z,1.40
2018-09-24T09:08:37.884Z,2.50
2018-09-24T09:11:12.617Z,1.53
2018-09-24T09:13:47.132Z,1.77
2018-09-24T09:16:21.657Z,1.47
2018-09-24T09:18:56.043Z,2.47
2018-09-24T09:21:30.648Z,1.50
2018-09-24T09:24:05.241Z,1.70
2018-09-24T09:26:39.864Z,2.57
2018-09-24T09:29:14.534Z,2.20
2018-09-24T09:31:48.957Z,2.07
2018-09-24T09:34:23.561Z,2.03
2018-09-24T09:36:58.199Z,2.03
2018-09-24T09:39:32.821Z,2.00
2018-09-24T09:42:07.360Z,1.80
2018-09-24T09:44:41.994Z,1.73
2018-09-24T09:47:16.594Z,1.17
2018-09-24T09:49:51.137Z,1.30
2018-09-24T09:52:25.609Z,1.57
2018-09-24T09:55:00.354Z,1.70
2018-09-24T09:57:34.905Z,1.10
2018-09-24T10:00:09.317Z,1.00
2018-09-24T10:02:44.178Z,1.20
2018-09-24T10:05:18.783Z,1.20
2018-09-24T10:07:53.316Z,1.40
2018-09-24T10:10:27.800Z,1.00
2018-09-24T10:13:02.375Z,1.47
2018-09-24T10:15:36.945Z,1.00
2018-09-24T10:18:11.590Z,1.20
2018-09-24T10:20:46.265Z,0.90
2018-09-24T10:23:20.803Z,1.43
2018-09-24T10:25:55.263Z,0.80
2018-09-24T10:28:29.920Z,0.60
2018-09-24T10:31:04.465Z,0.80
2018-09-24T10:33:38.958Z,0.90
2018-09-24T10:36:13.515Z,1.27
2018-09-24T10:38:48.194Z,1.00
2018-09-24T10:41:22.719Z,1.20
2018-09-24T10:43:57.291Z,1.23
2018-09-24T10:46:31.865Z,0.70
2018-09-24T10:49:06.333Z,0.87
2018-09-24T10:51:40.821Z,1.13
2018-09-24T10:54:15.342Z,1.13
2018-09-24T10:56:49.753Z,1.20
2018-09-24T10:59:24.389Z,0.97
2018-09-24T11:01:58.865Z,0.93
2018-09-24T11:04:33.489Z,1.23
2018-09-24T11:07:08.088Z,1.60
2018-09-24T11:09:42.632Z,1.60
2018-09-24T11:12:17.257Z,1.30
2018-09-24T11:14:51.816Z,1.97
2018-09-24T11:17:26.447Z,1.73
2018-09-24T11:20:00.719Z,2.30
2018-09-24T11:22:35.228Z,1.63
2018-09-24T11:25:09.675Z,1.90
2018-09-24T11:27:44.324Z,1.50
2018-09-24T11:30:18.769Z,1.93
2018-09-24T11:32:53.239Z,1.67
2018-09-24T11:35:27.890Z,1.80
2018-09-24T11:38:02.480Z,2.13
2018-09-24T11:40:36.990Z,2.20
2018-09-24T11:43:11.688Z,1.90
2018-09-24T11:45:46.222Z,2.30
2018-09-24T11:48:20.845Z,1.83
2018-09-24T11:50:55.465Z,1.60
2018-09-24T11:53:29.996Z,1.60
2018-09-24T11:56:04.455Z,2.33
2018-09-24T11:58:39.095Z,1.83
2018-09-24T12:01:13.652Z,1.33
2018-09-24T12:03:48.270Z,2.17
2018-09-24T12:06:22.776Z,1.50
2018-09-24T12:08:57.427Z,1.30
2018-09-24T12:11:31.975Z,1.00
2018-09-24T12:14:06.605Z,1.13
2018-09-24T12:16:41.210Z,1.80
2018-09-24T12:19:15.833Z,1.23
2018-09-24T12:21:50.225Z,1.50
2018-09-24T12:24:24.895Z,1.07
2018-09-24T12:26:59.379Z,1.10
2018-09-24T12:29:33.895Z,1.10
2018-09-24T12:32:08.521Z,1.40
2018-09-24T12:34:43.007Z,0.90
2018-09-24T12:37:17.702Z,0.60
2018-09-24T12:39:52.338Z,0.80
2018-09-24T12:42:26.934Z,0.90
2018-09-24T12:45:01.416Z,0.67
2018-09-24T12:47:35.998Z,0.57
2018-09-24T12:50:10.617Z,0.80
2018-09-24T12:52:45.249Z,0.40
2018-09-24T12:55:19.712Z,0.70
2018-09-24T12:57:54.285Z,0.60
2018-09-24T13:00:28.772Z,0.70
2018-09-24T13:03:03.397Z,0.70
2018-09-24T13:05:38.006Z,0.60
2018-09-24T13:08:12.621Z,0.70
2018-09-24T13:10:47.240Z,0.80
2018-09-24T13:13:21.838Z,0.60
2018-09-24T13:15:56.325Z,0.50
2018-09-24T13:18:30.789Z,0.40
2018-09-24T13:21:05.346Z,0.90
2018-09-24T13:23:39.785Z,0.60
2018-09-24T13:26:14.257Z,1.10
2018-09-24T13:28:48.818Z,0.60
2018-09-24T13:31:23.349Z,0.40
2018-09-24T13:33:57.751Z,0.50
2018-09-24T13:36:32.332Z,0.50
2018-09-24T13:39:06.645Z,0.43
2018-09-24T13:41:41.113Z,0.60
2018-09-24T13:44:15.714Z,0.60
2018-09-24T13:46:50.194Z,0.47
2018-09-24T13:49:24.895Z,0.80
2018-09-24T13:51:59.432Z,0.80
2018-09-24T13:54:33.976Z,0.80
2018-09-24T13:57:08.488Z,0.80
2018-09-24T13:59:42.927Z,0.80
2018-09-24T14:02:17.369Z,0.67
2018-09-24T14:04:51.991Z,0.53
2018-09-24T14:07:26.416Z,0.60
2018-09-24T14:10:00.954Z,1.00
2018-09-24T14:12:35.577Z,0.70
2018-09-24T14:15:10.015Z,0.67
2018-09-24T14:17:44.577Z,0.60
2018-09-24T14:20:18.915Z,1.00
2018-09-24T14:22:53.376Z,0.70
2018-09-24T14:25:27.847Z,0.83
2018-09-24T14:28:02.259Z,1.00
2018-09-24T14:30:43.326Z,0.80
2018-09-24T14:33:17.748Z,0.60
2018-09-24T14:35:52.217Z,1.33
2018-09-24T14:38:26.761Z,0.90
2018-09-24T14:41:01.294Z,0.80
2018-09-24T14:43:35.709Z,1.10
2018-09-24T14:46:10.229Z,1.03
2018-09-24T14:48:44.751Z,0.90
2018-09-24T14:51:19.236Z,0.83
2018-09-24T14:53:53.850Z,1.00
2018-09-24T14:56:28.249Z,1.10
2018-09-24T14:59:02.822Z,0.77
2018-09-24T15:01:37.243Z,1.00
2018-09-24T15:04:11.772Z,0.70
2018-09-24T15:06:46.297Z,0.90
2018-09-24T15:09:20.895Z,0.70
2018-09-24T15:11:55.305Z,2.13
2018-09-24T15:14:29.867Z,1.20
2018-09-24T15:17:04.413Z,1.53
2018-09-24T15:19:38.858Z,2.67
2018-09-24T15:22:13.257Z,0.83
2018-09-24T15:24:47.830Z,0.90
2018-09-24T15:27:22.254Z,0.90
2018-09-24T15:29:56.785Z,1.10
2018-09-24T15:32:31.218Z,0.77
2018-09-24T15:35:05.652Z,1.20
2018-09-24T15:37:40.157Z,0.90
2018-09-24T15:40:14.616Z,0.90
2018-09-24T15:42:49.265Z,0.90
2018-09-24T15:45:23.749Z,1.00
2018-09-24T15:47:58.273Z,1.03
2018-09-24T15:50:32.704Z,1.20
2018-09-24T15:53:07.201Z,1.10
2018-09-24T15:55:41.668Z,0.80
2018-09-24T15:58:16.183Z,1.10
2018-09-24T16:00:50.624Z,0.80
2018-09-24T16:03:25.109Z,0.87
2018-09-24T16:05:59.510Z,1.20
2018-09-24T16:08:34.040Z,0.80
2018-09-24T16:11:08.638Z,0.60
2018-09-24T16:13:43.112Z,1.07
2018-09-24T16:16:17.549Z,0.77
2018-09-24T16:18:52.014Z,0.77
2018-09-24T16:21:26.418Z,0.80
2018-09-24T16:24:00.837Z,0.87
2018-09-24T16:26:35.230Z,1.00
2018-09-24T16:29:09.906Z,0.90
2018-09-24T16:31:44.331Z,0.70
2018-09-24T16:34:18.929Z,0.60
2018-09-24T16:36:53.401Z,0.80
2018-09-24T16:39:27.905Z,0.83
2018-09-24T16:42:02.434Z,1.07
2018-09-24T16:44:37.045Z,0.80
2018-09-24T16:47:11.895Z,0.87
2018-09-24T16:49:46.330Z,1.10
2018-09-24T16:52:20.956Z,0.80
2018-09-24T16:54:55.477Z,1.00
2018-09-24T16:57:29.895Z,0.80
2018-09-24T17:00:04.518Z,1.17
2018-09-24T17:02:39.091Z,1.10
2018-09-24T17:05:13.637Z,0.67
2018-09-24T17:07:48.119Z,1.13
2018-09-24T17:10:22.685Z,0.60
2018-09-24T17:12:57.356Z,0.73
2018-09-24T17:15:31.967Z,0.80
2018-09-24T17:18:06.490Z,0.70
2018-09-24T17:20:40.840Z,1.20
2018-09-24T17:23:15.256Z,0.60
2018-09-24T17:25:49.766Z,0.70
2018-09-24T17:28:24.371Z,1.17
2018-09-24T17:30:58.809Z,1.40
2018-09-24T17:33:33.184Z,0.90
2018-09-24T17:36:07.590Z,1.33
2018-09-24T17:38:41.954Z,2.37
2018-09-24T17:41:16.334Z,2.60
2018-09-24T17:43:50.862Z,1.90
2018-09-24T17:46:25.409Z,2.23
2018-09-24T17:48:59.802Z,2.30
2018-09-24T17:51:34.112Z,1.77
2018-09-24T17:54:08.585Z,1.40
2018-09-24T17:56:43.165Z,0.90
2018-09-24T17:59:17.722Z,1.23
2018-09-24T18:01:52.309Z,1.70
2018-09-24T18:04:26.689Z,1.53
2018-09-24T18:07:01.210Z,1.30
2018-09-24T18:09:35.503Z,1.30
2018-09-24T18:12:10.025Z,1.10
2018-09-24T18:14:44.408Z,1.50
2018-09-24T18:17:18.824Z,1.50
2018-09-24T18:19:53.346Z,1.57
2018-09-24T18:22:27.988Z,1.73
2018-09-24T18:25:02.494Z,1.10
2018-09-24T18:27:37.075Z,1.13
2018-09-24T18:30:11.611Z,1.00
2018-09-24T18:32:46.128Z,1.23
2018-09-24T18:35:20.669Z,1.10
2018-09-24T18:37:55.215Z,0.90
2018-09-24T18:40:29.665Z,1.33
2018-09-24T18:43:04.126Z,1.20
2018-09-24T18:45:38.543Z,0.80
2018-09-24T18:48:12.993Z,0.80
2018-09-24T18:50:47.469Z,1.60
2018-09-24T18:53:22.001Z,1.67
2018-09-24T18:55:56.372Z,2.27
2018-09-24T18:58:31.034Z,3.67
2018-09-24T19:01:05.465Z,1.10
2018-09-24T19:03:39.904Z,1.03
2018-09-24T19:06:14.440Z,1.17
2018-09-24T19:08:48.854Z,1.03
2018-09-24T19:11:27.891Z,1.17
2018-09-24T19:13:57.999Z,1.10
2018-09-24T19:16:32.541Z,1.53
2018-09-24T19:19:07.091Z,1.20
2018-09-24T19:21:41.688Z,1.50
2018-09-24T19:24:16.144Z,1.30
2018-09-24T19:26:50.736Z,2.00
2018-09-24T19:29:25.151Z,1.63
2018-09-24T19:31:59.499Z,1.13
2018-09-24T19:34:34.051Z,1.80
2018-09-24T19:37:08.546Z,1.97
2018-09-24T19:39:43.029Z,1.20
2018-09-24T19:42:17.442Z,1.70
2018-09-24T19:44:51.924Z,1.10
2018-09-24T19:47:26.410Z,1.20
2018-09-24T19:50:00.730Z,2.53
2018-09-24T19:52:35.263Z,2.00
2018-09-24T19:55:09.824Z,1.27
2018-09-24T19:57:44.189Z,1.20
2018-09-24T20:00:18.754Z,1.30
2018-09-24T20:02:53.136Z,1.67
2018-09-24T20:05:27.458Z,1.60
2018-09-24T20:08:01.970Z,1.50
2018-09-24T20:10:36.387Z,1.30
2018-09-24T20:13:10.838Z,1.37
2018-09-24T20:15:45.338Z,1.57
2018-09-24T20:18:19.951Z,1.23
2018-09-24T20:20:54.379Z,1.00
2018-09-24T20:23:28.973Z,1.10
2018-09-24T20:26:03.531Z,1.77
2018-09-24T20:28:38.102Z,2.97
2018-09-24T20:31:12.754Z,5.10
2018-09-24T20:33:47.306Z,1.67
2018-09-24T20:36:21.804Z,1.40
2018-09-24T20:38:56.204Z,1.60
2018-09-24T20:41:30.904Z,1.40
2018-09-24T20:44:05.367Z,1.30
2018-09-24T20:46:39.790Z,1.43
2018-09-24T20:49:14.256Z,1.30
2018-09-24T20:51:48.762Z,1.90
2018-09-24T20:54:23.132Z,1.00
2018-09-24T20:56:57.482Z,1.27
2018-09-24T20:59:31.872Z,1.40
2018-09-24T21:02:06.345Z,1.40
2018-09-24T21:04:40.810Z,1.53
2018-09-24T21:07:15.214Z,1.50
2018-09-24T21:09:49.713Z,1.60
2018-09-24T21:12:24.176Z,1.67
2018-09-24T21:14:58.604Z,1.50
2018-09-24T21:17:33.182Z,1.33
2018-09-24T21:20:07.696Z,2.03
2018-09-24T21:22:42.042Z,1.77
2018-09-24T21:25:16.445Z,1.60
2018-09-24T21:27:50.977Z,1.23
2018-09-24T21:37:34.047Z,1.57
2018-09-24T21:40:08.445Z,1.13
2018-09-24T21:42:42.998Z,1.90
2018-09-24T21:45:17.439Z,2.50
2018-09-24T21:47:51.878Z,1.80
2018-09-24T21:50:26.424Z,1.83
2018-09-24T21:53:01.089Z,1.63
2018-09-24T21:55:35.460Z,2.30
2018-09-24T21:58:09.963Z,1.70
2018-09-24T22:00:44.513Z,2.20
2018-09-24T22:03:19.159Z,1.50
2018-09-24T22:05:53.654Z,1.70
2018-09-24T22:08:28.021Z,1.53
2018-09-24T22:11:02.420Z,2.70
2018-09-24T22:13:37.079Z,2.00
2018-09-24T22:16:11.852Z,1.80
2018-09-24T22:18:46.402Z,1.50
2018-09-24T22:21:20.837Z,2.10
2018-09-24T22:23:55.427Z,1.47
2018-09-24T22:26:29.994Z,2.40
2018-09-24T22:29:04.593Z,1.90
2018-09-24T22:31:39.175Z,2.50
2018-09-24T22:34:13.712Z,1.50
2018-09-24T22:36:48.176Z,1.63
2018-09-24T22:39:22.649Z,1.60
2018-09-24T22:41:57.749Z,1.60
2018-09-24T22:44:32.386Z,1.80
2018-09-24T22:47:06.777Z,2.00
2018-09-24T22:49:41.301Z,2.00
2018-09-24T22:52:15.778Z,2.50
2018-09-24T22:54:50.358Z,1.87
2018-09-24T22:57:24.984Z,1.10
2018-09-24T22:59:59.386Z,2.83
2018-09-24T23:02:33.896Z,1.47
2018-09-24T23:05:08.373Z,1.30
2018-09-24T23:07:42.866Z,1.90
2018-09-24T23:10:17.365Z,2.07
2018-09-24T23:12:51.783Z,1.37
2018-09-24T23:15:26.181Z,2.53
2018-09-24T23:18:00.549Z,1.60
2018-09-24T23:20:35.071Z,1.27
2018-09-24T23:23:09.670Z,1.80
2018-09-24T23:25:44.184Z,1.60
2018-09-24T23:28:18.598Z,1.20
2018-09-24T23:30:52.978Z,1.87
2018-09-24T23:33:27.522Z,1.30
2018-09-24T23:36:02.117Z,1.30
2018-09-24T23:38:36.685Z,1.30
2018-09-24T23:41:11.105Z,1.80
2018-09-24T23:43:45.609Z,1.80
2018-09-24T23:46:20.032Z,2.03
2018-09-24T23:48:54.611Z,1.60
2018-09-24T23:51:29.098Z,1.67
2018-09-24T23:54:03.518Z,1.60
2018-09-24T23:56:38.093Z,1.80
2018-09-24T23:59:12.490Z,1.43
